createdAt,value
2019-02-14T00:00:04.576Z,102200.45
2019-02-14T00:02:52.079Z,102203.67
2019-02-14T00:05:37.701Z,102207.85
2019-02-14T00:08:23.548Z,102202.14
2019-02-14T00:11:08.888Z,102185.94
2019-02-14T00:13:54.273Z,102199.17
2019-02-14T00:16:40.943Z,102198.39
2019-02-14T00:19:26.714Z,102186.24
2019-02-14T00:22:12.380Z,102180.83
2019-02-14T00:24:58.284Z,102180.38
2019-02-14T00:27:43.636Z,102184.37
2019-02-14T00:30:29.514Z,102197.20
2019-02-14T00:33:14.806Z,102193.66
2019-02-14T00:36:00.187Z,102195.41
2019-02-14T00:38:45.905Z,102208.51
2019-02-14T00:41:31.589Z,102197.20
2019-02-14T00:44:20.428Z,102193.16
2019-02-14T00:47:06.113Z,102202.31
2019-02-14T00:49:51.476Z,102213.59
2019-02-14T00:52:36.948Z,102212.75
2019-02-14T00:55:22.852Z,102219.14
2019-02-14T00:58:08.482Z,102230.28
2019-02-14T01:00:53.722Z,102227.14
2019-02-14T01:03:39.512Z,102217.73
2019-02-14T01:06:25.345Z,102219.58
2019-02-14T01:09:10.832Z,102209.89
2019-02-14T01:11:56.636Z,102200.56
2019-02-14T01:14:42.034Z,102204.95
2019-02-14T01:17:27.297Z,102198.88
2019-02-14T01:20:12.917Z,102198.22
2019-02-14T01:22:58.869Z,102205.00
2019-02-14T01:25:44.251Z,102195.87
2019-02-14T01:28:30.177Z,102195.87
2019-02-14T01:31:16.449Z,102193.38
2019-02-14T01:34:01.797Z,102188.36
2019-02-14T01:36:48.641Z,102187.97
2019-02-14T01:39:37.149Z,102191.12
2019-02-14T01:42:22.575Z,102187.34
2019-02-14T01:45:09.341Z,102189.78
2019-02-14T01:47:55.123Z,102187.52
2019-02-14T01:50:40.397Z,102181.96
2019-02-14T01:53:26.342Z,102176.30
2019-02-14T01:56:11.694Z,102174.56
2019-02-14T01:58:57.168Z,102171.05
2019-02-14T02:01:43.952Z,102164.35
2019-02-14T02:04:29.645Z,102163.78
2019-02-14T02:07:15.052Z,102162.24
2019-02-14T02:10:03.138Z,102161.30
2019-02-14T02:12:48.741Z,102156.86
2019-02-14T02:15:34.465Z,102160.57
2019-02-14T02:18:20.805Z,102162.70
2019-02-14T02:21:06.385Z,102169.52
2019-02-14T02:23:51.718Z,102170.71
2019-02-14T02:26:37.385Z,102177.44
2019-02-14T02:29:22.813Z,102178.54
2019-02-14T02:32:08.175Z,102176.89
2019-02-14T02:34:53.984Z,102179.27
2019-02-14T02:37:39.914Z,102174.23
2019-02-14T02:40:25.229Z,102171.41
2019-02-14T02:43:11.117Z,102175.98
2019-02-14T02:45:56.405Z,102174.67
2019-02-14T02:48:41.823Z,102180.77
2019-02-14T02:51:27.397Z,102176.13
2019-02-14T02:54:13.337Z,102175.49
2019-02-14T02:56:58.802Z,102173.03
2019-02-14T02:59:44.493Z,102171.14
2019-02-14T03:02:30.417Z,102169.52
2019-02-14T03:05:15.883Z,102171.59
2019-02-14T03:08:01.489Z,102169.52
2019-02-14T03:10:47.478Z,102172.88
2019-02-14T03:13:32.817Z,102165.09
2019-02-14T03:16:18.637Z,102169.50
2019-02-14T03:19:03.953Z,102169.50
2019-02-14T03:21:49.360Z,102173.45
2019-02-14T03:24:35.187Z,102183.14
2019-02-14T03:27:20.945Z,102181.84
2019-02-14T03:30:06.701Z,102189.84
2019-02-14T03:32:52.516Z,102190.72
2019-02-14T03:35:37.886Z,102190.72
2019-02-14T03:38:23.344Z,102196.70
2019-02-14T03:41:08.931Z,102189.31
2019-02-14T03:43:55.010Z,102185.80
2019-02-14T03:46:40.321Z,102184.69
2019-02-14T03:49:25.998Z,102184.69
2019-02-14T03:52:11.466Z,102184.69
2019-02-14T03:54:56.861Z,102194.64
2019-02-14T03:57:42.514Z,102196.50
2019-02-14T04:00:28.147Z,102190.73
2019-02-14T04:03:13.441Z,102190.73
2019-02-14T04:05:59.477Z,102176.25
2019-02-14T04:08:44.786Z,102182.66
2019-02-14T04:11:30.182Z,102175.47
2019-02-14T04:14:15.778Z,102187.24
2019-02-14T04:17:03.743Z,102187.24
2019-02-14T04:19:49.510Z,102173.45
2019-02-14T04:22:35.173Z,102177.25
2019-02-14T04:25:20.613Z,102188.33
2019-02-14T04:28:06.148Z,102185.48
2019-02-14T04:30:53.750Z,102181.98
2019-02-14T04:33:39.914Z,102201.39
2019-02-14T04:36:25.233Z,102204.62
2019-02-14T04:39:10.820Z,102204.62
2019-02-14T04:41:56.259Z,102202.87
2019-02-14T04:44:41.661Z,102205.08
2019-02-14T04:47:27.020Z,102204.48
2019-02-14T04:50:12.257Z,102205.58
2019-02-14T04:52:57.630Z,102200.52
2019-02-14T04:55:43.388Z,102200.52
2019-02-14T04:58:28.796Z,102194.20
2019-02-14T05:01:14.190Z,102197.69
2019-02-14T05:03:59.806Z,102197.69
2019-02-14T05:06:46.098Z,102203.77
2019-02-14T05:09:31.451Z,102211.91
2019-02-14T05:12:16.774Z,102213.96
2019-02-14T05:15:02.163Z,102213.96
2019-02-14T05:17:48.395Z,102205.08
2019-02-14T05:20:33.707Z,102201.84
2019-02-14T05:23:19.450Z,102221.80
2019-02-14T05:26:04.823Z,102221.80
2019-02-14T05:28:50.218Z,102222.78
2019-02-14T05:31:37.571Z,102226.63
2019-02-14T05:34:23.518Z,102226.63
2019-02-14T05:37:08.927Z,102225.67
2019-02-14T05:39:54.602Z,102231.91
2019-02-14T05:42:39.963Z,102231.33
2019-02-14T05:45:25.609Z,102224.39
2019-02-14T05:48:11.510Z,102224.39
2019-02-14T05:50:56.943Z,102228.51
2019-02-14T05:53:42.358Z,102240.53
2019-02-14T05:56:28.178Z,102235.83
2019-02-14T05:59:13.597Z,102232.51
2019-02-14T06:02:01.402Z,102235.14
2019-02-14T06:04:47.743Z,102233.29
2019-02-14T06:07:33.438Z,102233.98
2019-02-14T06:10:18.761Z,102239.05
2019-02-14T06:13:05.129Z,102241.34
2019-02-14T06:15:50.449Z,102244.26
2019-02-14T06:18:41.862Z,102244.26
2019-02-14T06:21:33.362Z,102250.49
2019-02-14T06:24:19.103Z,102246.97
2019-02-14T06:27:04.476Z,102256.98
2019-02-14T06:29:52.999Z,102256.20
2019-02-14T06:32:38.392Z,102254.65
2019-02-14T06:35:23.739Z,102254.65
2019-02-14T06:38:09.123Z,102260.02
2019-02-14T06:40:54.646Z,102260.12
2019-02-14T06:43:39.996Z,102265.02
2019-02-14T06:46:25.818Z,102266.66
2019-02-14T06:49:11.201Z,102266.96
2019-02-14T06:51:56.631Z,102265.09
2019-02-14T06:54:42.067Z,102270.75
2019-02-14T06:57:27.534Z,102268.55
2019-02-14T07:00:13.944Z,102268.55
2019-02-14T07:02:59.314Z,102268.14
2019-02-14T07:05:44.771Z,102269.67
2019-02-14T07:08:30.564Z,102269.67
2019-02-14T07:11:16.340Z,102276.14
2019-02-14T07:14:01.971Z,102290.80
2019-02-14T07:16:47.349Z,102290.80
2019-02-14T07:19:33.394Z,102294.86
2019-02-14T07:22:18.790Z,102294.86
2019-02-14T07:25:04.550Z,102283.20
2019-02-14T07:27:50.647Z,102285.16
2019-02-14T07:30:36.013Z,102285.16
2019-02-14T07:33:21.391Z,102290.48
2019-02-14T07:36:07.122Z,102294.09
2019-02-14T07:38:52.462Z,102295.20
2019-02-14T07:41:37.906Z,102293.25
2019-02-14T07:44:23.741Z,102294.48
2019-02-14T07:47:09.153Z,102291.75
2019-02-14T07:49:54.621Z,102288.96
2019-02-14T07:52:40.194Z,102290.97
2019-02-14T07:55:25.587Z,102288.06
2019-02-14T07:58:11.034Z,102289.35
2019-02-14T08:00:57.050Z,102287.64
2019-02-14T08:03:42.794Z,102290.16
2019-02-14T08:06:28.138Z,102287.92
2019-02-14T08:09:13.731Z,102295.55
2019-02-14T08:11:59.056Z,102286.91
2019-02-14T08:14:44.846Z,102291.05
2019-02-14T08:17:30.810Z,102289.23
2019-02-14T08:20:16.219Z,102288.55
2019-02-14T08:23:02.074Z,102287.27
2019-02-14T08:25:47.682Z,102296.02
2019-02-14T08:28:33.477Z,102299.86
2019-02-14T08:31:19.031Z,102304.32
2019-02-14T08:34:04.330Z,102294.50
2019-02-14T08:36:49.968Z,102299.91
2019-02-14T08:39:35.436Z,102303.77
2019-02-14T08:42:21.066Z,102303.79
2019-02-14T08:45:07.902Z,102306.04
2019-02-14T08:47:53.511Z,102306.29
2019-02-14T08:50:38.940Z,102301.31
2019-02-14T08:53:24.310Z,102296.52
2019-02-14T08:56:09.707Z,102304.97
2019-02-14T08:58:55.262Z,102308.32
2019-02-14T09:01:41.482Z,102309.67
2019-02-14T09:04:29.898Z,102309.03
2019-02-14T09:07:15.334Z,102312.36
2019-02-14T09:10:01.143Z,102314.02
2019-02-14T09:12:46.552Z,102318.34
2019-02-14T09:15:31.967Z,102317.55
2019-02-14T09:18:17.635Z,102309.44
2019-02-14T09:21:03.190Z,102305.05
2019-02-14T09:23:48.523Z,102306.44
2019-02-14T09:26:34.263Z,102313.81
2019-02-14T09:29:19.887Z,102312.79
2019-02-14T09:32:05.486Z,102307.06
2019-02-14T09:34:50.865Z,102299.90
2019-02-14T09:37:36.292Z,102298.27
2019-02-14T09:40:21.678Z,102304.75
2019-02-14T09:43:07.023Z,102292.77
2019-02-14T09:45:52.819Z,102295.46
2019-02-14T09:48:38.378Z,102287.26
2019-02-14T09:51:23.673Z,102302.30
2019-02-14T09:54:09.093Z,102311.20
2019-02-14T09:56:54.402Z,102310.40
2019-02-14T09:59:40.230Z,102309.81
2019-02-14T10:02:25.939Z,102319.48
2019-02-14T10:05:11.662Z,102316.02
2019-02-14T10:07:57.037Z,102321.31
2019-02-14T10:10:42.575Z,102320.88
2019-02-14T10:13:28.390Z,102314.05
2019-02-14T10:16:13.762Z,102310.77
2019-02-14T10:18:59.079Z,102312.83
2019-02-14T10:21:44.587Z,102315.51
2019-02-14T10:24:30.348Z,102323.66
2019-02-14T10:27:15.731Z,102312.48
2019-02-14T10:30:01.142Z,102317.63
2019-02-14T10:32:46.483Z,102313.61
2019-02-14T10:35:31.962Z,102301.76
2019-02-14T10:38:22.324Z,102298.56
2019-02-14T10:41:04.815Z,102305.28
2019-02-14T10:43:50.338Z,102306.58
2019-02-14T10:46:36.112Z,102300.19
2019-02-14T10:49:21.555Z,102293.31
2019-02-14T10:52:06.989Z,102281.97
2019-02-14T10:54:52.703Z,102289.39
2019-02-14T10:57:38.375Z,102293.76
2019-02-14T11:00:23.897Z,102295.61
2019-02-14T11:03:09.591Z,102294.13
2019-02-14T11:05:54.931Z,102300.19
2019-02-14T11:08:41.313Z,102294.91
2019-02-14T11:11:26.871Z,102299.31
2019-02-14T11:14:12.175Z,102291.32
2019-02-14T11:16:57.655Z,102301.63
2019-02-14T11:19:42.935Z,102290.55
2019-02-14T11:22:28.344Z,102284.64
2019-02-14T11:25:18.763Z,102277.17
2019-02-14T11:28:05.035Z,102271.52
2019-02-14T11:30:51.504Z,102261.08
2019-02-14T11:33:37.252Z,102255.64
2019-02-14T11:36:22.571Z,102254.02
2019-02-14T11:39:09.180Z,102254.55
2019-02-14T11:41:54.856Z,102260.69
2019-02-14T11:44:40.284Z,102259.83
2019-02-14T11:47:26.036Z,102269.69
2019-02-14T11:50:11.575Z,102273.60
2019-02-14T11:52:57.257Z,102278.42
2019-02-14T11:55:42.752Z,102274.63
2019-02-14T11:58:28.031Z,102279.97
2019-02-14T12:01:13.540Z,102276.14
2019-02-14T12:03:58.854Z,102276.16
2019-02-14T12:06:44.710Z,102268.97
2019-02-14T12:09:30.120Z,102261.59
2019-02-14T12:12:15.924Z,102260.27
2019-02-14T12:15:01.324Z,102264.09
2019-02-14T12:17:46.887Z,102261.00
2019-02-14T12:20:32.699Z,102258.51
2019-02-14T12:23:18.040Z,102249.39
2019-02-14T12:26:05.593Z,102254.09
2019-02-14T12:28:51.056Z,102261.16
2019-02-14T12:31:36.732Z,102261.16
2019-02-14T12:34:22.163Z,102254.62
2019-02-14T12:37:12.357Z,102252.70
2019-02-14T12:39:58.435Z,102256.29
2019-02-14T12:42:44.344Z,102250.59
2019-02-14T12:45:29.751Z,102256.12
2019-02-14T12:48:16.168Z,102257.15
2019-02-14T12:51:01.508Z,102250.41
2019-02-14T12:53:46.914Z,102245.47
2019-02-14T12:56:32.351Z,102243.30
2019-02-14T12:59:17.767Z,102241.57
2019-02-14T13:02:03.126Z,102234.58
2019-02-14T13:04:48.462Z,102232.83
2019-02-14T13:07:34.514Z,102228.73
2019-02-14T13:10:22.387Z,102228.30
2019-02-14T13:13:08.818Z,102221.83
2019-02-14T13:15:54.480Z,102221.06
2019-02-14T13:18:39.810Z,102211.08
2019-02-14T13:21:25.290Z,102218.86
2019-02-14T13:24:12.119Z,102214.85
2019-02-14T13:26:57.642Z,102209.31
2019-02-14T13:29:43.518Z,102210.19
2019-02-14T13:32:29.386Z,102213.23
2019-02-14T13:35:14.861Z,102208.48
2019-02-14T13:38:00.550Z,102197.16
2019-02-14T13:40:46.098Z,102195.42
2019-02-14T13:43:31.886Z,102194.11
2019-02-14T13:46:17.597Z,102191.05
2019-02-14T13:49:03.206Z,102186.66
2019-02-14T13:51:48.615Z,102189.48
2019-02-14T13:54:33.983Z,102189.78
2019-02-14T13:57:19.444Z,102183.66
2019-02-14T14:00:07.793Z,102181.89
2019-02-14T14:02:53.284Z,102180.52
2019-02-14T14:05:39.030Z,102181.62
2019-02-14T14:08:24.414Z,102178.86
2019-02-14T14:11:09.841Z,102178.47
2019-02-14T14:13:55.715Z,102175.84
2019-02-14T14:16:41.080Z,102175.25
2019-02-14T14:19:28.928Z,102173.90
2019-02-14T14:22:14.158Z,102169.31
2019-02-14T14:24:59.781Z,102171.86
2019-02-14T14:27:45.120Z,102166.77
2019-02-14T14:30:30.907Z,102172.66
2019-02-14T14:33:16.549Z,102164.54
2019-02-14T14:36:01.901Z,102167.16
2019-02-14T14:38:47.805Z,102166.13
2019-02-14T14:41:33.633Z,102167.55
2019-02-14T14:44:28.485Z,102167.26
2019-02-14T14:47:16.674Z,102164.98
2019-02-14T14:50:02.262Z,102166.39
2019-02-14T14:52:48.138Z,102159.91
2019-02-14T14:55:35.463Z,102163.13
2019-02-14T14:58:21.173Z,102166.48
2019-02-14T15:01:06.531Z,102161.83
2019-02-14T15:03:52.346Z,102167.52
2019-02-14T15:06:38.229Z,102167.00
2019-02-14T15:09:23.634Z,102166.73
2019-02-14T15:12:10.374Z,102162.89
2019-02-14T15:14:56.530Z,102162.61
2019-02-14T15:17:41.966Z,102161.91
2019-02-14T15:20:29.868Z,102153.17
2019-02-14T15:23:15.608Z,102154.81
2019-02-14T15:26:00.998Z,102158.84
2019-02-14T15:28:46.402Z,102150.79
2019-02-14T15:31:31.766Z,102151.22
2019-02-14T15:34:17.080Z,102147.30
2019-02-14T15:37:02.680Z,102142.67
2019-02-14T15:39:49.276Z,102145.96
2019-02-14T15:42:34.942Z,102140.11
2019-02-14T15:45:20.267Z,102141.62
2019-02-14T15:48:05.689Z,102141.02
2019-02-14T15:50:51.840Z,102138.73
2019-02-14T15:53:41.162Z,102139.34
2019-02-14T15:56:27.344Z,102134.78
2019-02-14T15:59:14.054Z,102140.13
2019-02-14T16:01:59.414Z,102142.17
2019-02-14T16:04:45.988Z,102137.70
2019-02-14T16:07:32.299Z,102139.92
2019-02-14T16:10:18.893Z,102132.78
2019-02-14T16:13:05.816Z,102140.30
2019-02-14T16:15:58.841Z,102135.78
2019-02-14T16:18:46.563Z,102132.06
2019-02-14T16:21:32.402Z,102128.13
2019-02-14T16:24:18.558Z,102126.45
2019-02-14T16:27:04.515Z,102121.48
2019-02-14T16:29:50.923Z,102126.22
2019-02-14T16:32:36.834Z,102126.16
2019-02-14T16:35:23.857Z,102128.55
2019-02-14T16:38:11.795Z,102130.55
2019-02-14T16:40:57.413Z,102131.43
2019-02-14T16:43:42.875Z,102132.41
2019-02-14T16:46:28.662Z,102133.23
2019-02-14T16:49:14.155Z,102126.06
2019-02-14T16:51:59.597Z,102138.07
2019-02-14T16:54:44.940Z,102131.02
2019-02-14T16:57:30.375Z,102127.98
2019-02-14T17:00:16.134Z,102133.68
2019-02-14T17:03:01.583Z,102139.90
2019-02-14T17:05:47.025Z,102138.14
2019-02-14T17:08:33.201Z,102139.13
2019-02-14T17:11:18.879Z,102139.20
2019-02-14T17:14:07.209Z,102141.99
2019-02-14T17:16:54.193Z,102152.52
2019-02-14T17:19:39.785Z,102152.21
2019-02-14T17:22:27.611Z,102155.86
2019-02-14T17:25:13.167Z,102158.05
2019-02-14T17:27:58.555Z,102155.51
2019-02-14T17:30:43.815Z,102159.81
2019-02-14T17:33:29.370Z,102166.77
2019-02-14T17:36:14.643Z,102164.72
2019-02-14T17:39:04.734Z,102166.12
2019-02-14T17:41:50.495Z,102163.28
2019-02-14T17:44:36.271Z,102162.16
2019-02-14T17:47:21.655Z,102163.41
2019-02-14T17:50:07.807Z,102169.56
2019-02-14T17:52:53.667Z,102167.71
2019-02-14T17:55:40.347Z,102161.12
2019-02-14T17:58:26.583Z,102157.67
2019-02-14T18:01:12.012Z,102157.19
2019-02-14T18:03:57.935Z,102164.30
2019-02-14T18:06:43.894Z,102157.06
2019-02-14T18:09:29.295Z,102151.05
2019-02-14T18:12:14.683Z,102150.69
2019-02-14T18:15:00.491Z,102151.14
2019-02-14T18:17:46.008Z,102151.55
2019-02-14T18:20:31.327Z,102152.09
2019-02-14T18:23:17.005Z,102155.53
2019-02-14T18:26:02.310Z,102156.28
2019-02-14T18:28:47.759Z,102152.47
2019-02-14T18:31:33.223Z,102155.91
2019-02-14T18:34:19.091Z,102161.15
2019-02-14T18:37:04.425Z,102156.02
2019-02-14T18:39:52.052Z,102156.08
2019-02-14T18:42:38.547Z,102154.25
2019-02-14T18:45:24.131Z,102152.66
2019-02-14T18:48:10.932Z,102147.95
2019-02-14T18:50:57.603Z,102151.85
2019-02-14T18:53:43.447Z,102146.52
2019-02-14T18:56:28.871Z,102149.56
2019-02-14T18:59:14.207Z,102146.59
2019-02-14T19:01:59.794Z,102143.48
2019-02-14T19:04:45.825Z,102137.06
2019-02-14T19:07:31.733Z,102141.66
2019-02-14T19:10:17.150Z,102138.53
2019-02-14T19:13:03.521Z,102138.13
2019-02-14T19:15:49.342Z,102139.13
2019-02-14T19:18:35.871Z,102134.64
2019-02-14T19:21:21.755Z,102131.60
2019-02-14T19:24:07.863Z,102135.51
2019-02-14T19:26:53.211Z,102129.06
2019-02-14T19:29:38.788Z,102130.55
2019-02-14T19:32:24.176Z,102129.17
2019-02-14T19:35:09.648Z,102133.70
2019-02-14T19:37:57.230Z,102131.13
2019-02-14T19:40:42.880Z,102127.28
2019-02-14T19:43:28.331Z,102126.98
2019-02-14T19:46:14.348Z,102124.00
2019-02-14T19:49:03.787Z,102122.22
2019-02-14T19:51:49.107Z,102118.28
2019-02-14T19:54:34.369Z,102124.34
2019-02-14T19:57:20.203Z,102116.22
2019-02-14T20:00:07.467Z,102107.33
2019-02-14T20:02:54.884Z,102108.01
2019-02-14T20:05:43.328Z,102108.52
2019-02-14T20:08:28.985Z,102101.48
2019-02-14T20:11:17.929Z,102103.81
2019-02-14T20:14:04.030Z,102105.40
2019-02-14T20:16:49.660Z,102102.90
2019-02-14T20:19:35.564Z,102103.52
2019-02-14T20:22:22.744Z,102106.20
2019-02-14T20:25:09.906Z,102104.42
2019-02-14T20:27:55.324Z,102103.91
2019-02-14T20:30:48.123Z,102099.53
2019-02-14T20:33:43.404Z,102102.09
2019-02-14T20:36:35.124Z,102098.23
2019-02-14T20:39:26.845Z,102096.48
2019-02-14T20:42:17.505Z,102094.34
2019-02-14T20:45:03.367Z,102091.64
2019-02-14T20:47:48.716Z,102090.02
2019-02-14T20:50:37.179Z,102091.55
2019-02-14T20:53:22.706Z,102090.36
2019-02-14T20:56:11.987Z,102087.13
2019-02-14T20:58:58.078Z,102091.36
2019-02-14T21:01:43.748Z,102088.92
2019-02-14T21:04:29.640Z,102079.61
2019-02-14T21:07:15.375Z,102080.11
2019-02-14T21:10:01.406Z,102085.02
2019-02-14T21:12:46.723Z,102086.09
2019-02-14T21:22:17.761Z,102077.86
2019-02-14T21:24:54.528Z,102085.41
2019-02-14T21:27:40.163Z,102083.34
2019-02-14T21:36:52.044Z,102079.54
2019-02-14T21:39:37.478Z,102082.11
2019-02-14T21:42:28.919Z,102080.28
2019-02-14T21:45:11.164Z,102080.55
2019-02-14T21:47:57.109Z,102081.35
2019-02-14T21:50:43.009Z,102075.06
2019-02-14T21:53:28.623Z,102077.40
2019-02-14T21:56:14.146Z,102074.69
2019-02-14T21:58:59.513Z,102075.69
2019-02-14T22:01:44.861Z,102076.77
2019-02-14T22:04:32.181Z,102077.86
2019-02-14T22:09:58.996Z,102080.55
2019-02-14T22:12:44.698Z,102088.16
2019-02-14T22:15:30.875Z,102085.02
2019-02-14T22:18:16.123Z,102084.86
2019-02-14T22:21:01.968Z,102082.08
2019-02-14T22:23:47.779Z,102079.91
2019-02-14T22:26:34.151Z,102073.70
2019-02-14T22:29:19.918Z,102069.78
2019-02-14T22:32:05.282Z,102080.71
2019-02-14T22:34:50.667Z,102081.84
2019-02-14T22:37:37.392Z,102079.30
2019-02-14T22:40:23.280Z,102078.63
2019-02-14T22:43:11.294Z,102077.55
2019-02-14T22:45:57.294Z,102076.89
2019-02-14T22:48:44.001Z,102080.33
2019-02-14T22:51:29.714Z,102075.91
2019-02-14T22:54:15.454Z,102079.12
2019-02-14T22:57:00.937Z,102075.77
2019-02-14T22:59:46.469Z,102082.41
2019-02-14T23:05:30.006Z,102079.70
2019-02-14T23:08:16.325Z,102083.91
2019-02-14T23:11:02.583Z,102082.34
2019-02-14T23:13:48.650Z,102087.98
2019-02-14T23:16:34.630Z,102079.28
2019-02-14T23:19:26.852Z,102082.00
2019-02-14T23:22:13.371Z,102086.44
2019-02-14T23:24:59.637Z,102079.41
2019-02-14T23:27:46.949Z,102079.41
2019-02-14T23:30:33.051Z,102086.02
2019-02-14T23:33:19.044Z,102090.41
2019-02-14T23:36:08.716Z,102090.97
2019-02-14T23:38:58.083Z,102090.97
2019-02-14T23:41:44.404Z,102091.77
2019-02-14T23:44:30.651Z,102093.92
2019-02-14T23:47:16.806Z,102096.86
2019-02-14T23:50:05.462Z,102090.87
2019-02-14T23:52:51.826Z,102094.64
2019-02-14T23:55:37.844Z,102099.32
2019-02-14T23:58:23.937Z,102101.37
